Terminal Aerodrome Forecast
Issued by NWS

Current Version | Previous Version | Graphics & Text | Print | Product List | Glossary On
Versions: 1 2 3 4 5 6 7 8 9 10 11 12 13 14 15 16 17 18 19 20 21 22 23 24
000
FTUS41 KPBZ 310520
TAFHLG
TAF
KHLG 310520Z 3106/0106 00000KT 3SM BR BKN100
      TEMPO 3106/3109 3/4SM BR SCT002
     FM311400 17007KT P6SM VCSH BKN040
     FM311700 22008KT 6SM -SHRA VCTS SCT035CB BKN050
     FM010300 28004KT 2SM -SHRA BR BKN007=

USA.gov is the U.S. government's official web portal to all federal, state and local government web resources and services.